Time;durP1;ratioP1;P1;durP2;ratioP2;P2;SDS_P1;SDS_P2;PMS_P1;PMS_P2;Temp;Humidity;BMP_temperature;BMP_pressure;BME280_temperature;BME280_humidity;BME280_pressure;Samples;Min_cycle;Max_cycle;Signal;HPM_P1;HPM_P2
2021/07/22 00:00:26;;;;;;;10.90;7.63;;;17.80;99.40;;;;;;2060036;28;20078;-82
2021/07/22 00:01:27;;;;;;;11.43;7.53;;;17.80;99.20;;;;;;2061479;28;20041;-82
2021/07/22 00:02:28;;;;;;;11.90;7.20;;;17.80;99.10;;;;;;2059982;28;20066;-79
2021/07/22 00:03:32;;;;;;;10.30;7.32;;;17.80;99.20;;;;;;2060757;28;20026;-80
2021/07/22 00:04:33;;;;;;;10.00;7.18;;;17.80;99.00;;;;;;2061265;28;20117;-82
2021/07/22 00:05:33;;;;;;;11.02;7.50;;;17.80;99.00;;;;;;2060008;28;20043;-80
2021/07/22 00:06:34;;;;;;;10.55;7.82;;;17.70;98.80;;;;;;2052815;28;20031;-81
2021/07/22 00:07:35;;;;;;;9.57;7.20;;;17.80;98.90;;;;;;2060016;28;20058;-81
2021/07/22 00:08:36;;;;;;;9.85;7.30;;;17.80;99.00;;;;;;2061482;28;20041;-78
2021/07/22 00:09:39;;;;;;;9.80;7.28;;;17.80;99.00;;;;;;2063827;28;20030;-80
2021/07/22 00:10:40;;;;;;;9.57;7.03;;;17.80;99.10;;;;;;2063997;28;20015;-78
2021/07/22 00:11:44;;;;;;;9.75;6.82;;;17.80;99.10;;;;;;2063903;28;20041;-80
2021/07/22 00:12:44;;;;;;;9.13;6.95;;;17.80;99.10;;;;;;2062348;28;20040;-78
2021/07/22 00:13:45;;;;;;;9.43;7.15;;;17.80;99.10;;;;;;2054360;28;20027;-80
2021/07/22 00:14:45;;;;;;;9.43;7.30;;;17.80;99.10;;;;;;2056388;29;20043;-79
2021/07/22 00:15:46;;;;;;;10.35;7.55;;;17.80;99.40;;;;;;2061992;28;20019;-79
2021/07/22 00:16:47;;;;;;;10.07;7.57;;;17.80;99.50;;;;;;2061866;28;20042;-80
2021/07/22 00:17:47;;;;;;;9.73;7.00;;;17.80;99.40;;;;;;2061358;28;20031;-79
2021/07/22 00:18:48;;;;;;;8.77;6.93;;;17.80;99.80;;;;;;2060817;28;20031;-79
2021/07/22 00:19:49;;;;;;;9.18;6.88;;;17.70;99.50;;;;;;2059931;28;20097;-81
2021/07/22 00:20:49;;;;;;;9.18;7.38;;;17.70;99.50;;;;;;2060738;28;20050;-82
2021/07/22 00:21:50;;;;;;;8.75;6.80;;;17.70;99.50;;;;;;2060729;28;20466;-81
2021/07/22 00:22:51;;;;;;;11.30;7.40;;;17.70;99.40;;;;;;2060816;28;20030;-78
2021/07/22 00:23:52;;;;;;;10.02;7.10;;;17.70;99.50;;;;;;2053382;28;20031;-79
2021/07/22 00:24:53;;;;;;;9.85;6.80;;;17.70;99.40;;;;;;2052334;29;20015;-79
2021/07/22 00:25:56;;;;;;;10.43;7.25;;;17.70;99.40;;;;;;2053629;28;20027;-79
2021/07/22 00:27:02;;;;;;;9.10;7.20;;;17.70;99.40;;;;;;2054631;28;20109;-80
2021/07/22 00:28:04;;;;;;;9.05;6.78;;;17.70;99.60;;;;;;2061506;28;20106;-79
2021/07/22 00:29:04;;;;;;;10.35;7.32;;;17.70;99.60;;;;;;2062071;28;20035;-79
2021/07/22 00:30:07;;;;;;;12.18;7.38;;;17.70;99.50;;;;;;2062352;28;20623;-79
2021/07/22 00:31:07;;;;;;;11.73;7.43;;;17.80;99.50;;;;;;2062599;28;20411;-80
2021/07/22 00:32:11;;;;;;;8.75;6.88;;;17.70;99.60;;;;;;2063414;28;20038;-81
2021/07/22 00:33:14;;;;;;;10.65;7.30;;;17.70;99.60;;;;;;2059715;28;20033;-80
2021/07/22 00:34:17;;;;;;;9.05;7.10;;;17.80;99.60;;;;;;2063740;28;20122;-81
2021/07/22 00:35:18;;;;;;;9.25;6.95;;;17.80;99.60;;;;;;2061275;28;20039;-80
2021/07/22 00:36:22;;;;;;;9.95;7.28;;;17.70;99.90;;;;;;2055341;28;20134;-79
2021/07/22 00:37:25;;;;;;;8.75;7.03;;;17.80;99.60;;;;;;2054348;28;20649;-81
2021/07/22 00:38:26;;;;;;;9.05;6.97;;;17.70;99.60;;;;;;2054230;28;20038;-79
2021/07/22 00:39:27;;;;;;;9.68;7.00;;;17.80;99.60;;;;;;2056715;28;20031;-79
2021/07/22 00:40:45;;;;;;;9.52;7.00;;;17.70;99.60;;;;;;2061167;28;20371;-79
2021/07/22 00:41:47;;;;;;;9.70;7.03;;;17.70;99.70;;;;;;2060571;28;20051;-80
2021/07/22 00:43:01;;;;;;;9.63;7.38;;;17.70;99.70;;;;;;2051861;28;20087;-81
2021/07/22 00:44:03;;;;;;;8.93;7.13;;;17.70;99.70;;;;;;2054009;28;20027;-81
2021/07/22 00:45:04;;;;;;;9.80;7.40;;;17.70;99.70;;;;;;2059979;28;20022;-80
2021/07/22 00:46:05;;;;;;;8.48;7.03;;;17.70;99.70;;;;;;2059611;28;20033;-80
2021/07/22 00:47:06;;;;;;;10.52;7.32;;;17.70;99.90;;;;;;2054449;28;20020;-80
2021/07/22 00:48:07;;;;;;;9.02;7.20;;;17.70;99.50;;;;;;2062787;28;20027;-80
2021/07/22 00:49:10;;;;;;;8.98;7.00;;;17.70;99.70;;;;;;2063463;28;20030;-80
2021/07/22 00:50:11;;;;;;;10.68;7.50;;;17.70;99.70;;;;;;2062151;28;20614;-80
2021/07/22 00:51:13;;;;;;;10.05;6.85;;;17.60;99.90;;;;;;2059447;28;20027;-78
2021/07/22 00:52:13;;;;;;;8.85;7.07;;;17.60;99.90;;;;;;2060369;28;20033;-79
2021/07/22 00:53:14;;;;;;;9.88;7.20;;;17.60;99.90;;;;;;2062508;28;20054;-80
2021/07/22 00:54:21;;;;;;;12.45;7.03;;;17.60;99.90;;;;;;2054897;28;20062;-79
2021/07/22 00:55:24;;;;;;;9.10;7.25;;;17.60;99.90;;;;;;2063480;28;20035;-79
2021/07/22 00:56:25;;;;;;;9.88;7.22;;;17.60;99.90;;;;;;2063672;28;20027;-79
2021/07/22 00:57:26;;;;;;;10.75;7.18;;;17.60;99.90;;;;;;2063355;28;20034;-80
2021/07/22 00:58:27;;;;;;;9.48;7.10;;;17.60;99.90;;;;;;2064869;28;20038;-79
2021/07/22 00:59:27;;;;;;;10.07;7.15;;;17.60;99.90;;;;;;2065233;28;20035;-79
2021/07/22 01:00:29;;;;;;;9.55;6.80;;;17.60;99.90;;;;;;2057032;28;20031;-79
2021/07/22 01:01:30;;;;;;;10.05;7.60;;;17.60;99.90;;;;;;2063570;28;20062;-80
2021/07/22 01:02:32;;;;;;;9.60;7.20;;;17.60;99.90;;;;;;2062677;28;20027;-81
2021/07/22 01:03:35;;;;;;;11.30;7.28;;;17.60;99.90;;;;;;2055435;28;20087;-80
2021/07/22 01:04:36;;;;;;;10.25;7.25;;;17.60;99.80;;;;;;2054142;28;20024;-80
2021/07/22 01:05:37;;;;;;;9.20;7.18;;;17.60;99.80;;;;;;2063171;28;20023;-80
2021/07/22 01:06:38;;;;;;;9.98;7.28;;;17.50;99.80;;;;;;2063767;28;20026;-80
2021/07/22 01:07:47;;;;;;;13.02;7.10;;;17.50;99.80;;;;;;2061782;28;20025;-80
2021/07/22 01:08:47;;;;;;;9.13;6.80;;;17.50;99.90;;;;;;2061567;28;20031;-80
2021/07/22 01:09:54;;;;;;;9.82;7.15;;;17.50;99.90;;;;;;2062539;28;20031;-80
2021/07/22 01:10:55;;;;;;;11.48;7.35;;;17.50;99.90;;;;;;2062923;28;20053;-80
2021/07/22 01:11:56;;;;;;;8.45;6.72;;;17.50;99.90;;;;;;2063540;28;20058;-79
2021/07/22 01:12:58;;;;;;;10.20;6.95;;;17.50;99.90;;;;;;2063056;28;20031;-79
2021/07/22 01:14:01;;;;;;;9.50;7.15;;;17.50;99.90;;;;;;2061381;28;20026;-81
2021/07/22 01:15:03;;;;;;;10.68;7.50;;;17.50;99.90;;;;;;2054456;28;20066;-81
2021/07/22 01:16:04;;;;;;;10.25;7.07;;;17.50;99.90;;;;;;2063284;28;20058;-82
2021/07/22 01:17:15;;;;;;;9.40;7.30;;;17.50;99.90;;;;;;2062171;28;20023;-79
2021/07/22 01:18:16;;;;;;;10.75;7.25;;;17.50;99.90;;;;;;2060738;28;20035;-80
2021/07/22 01:19:17;;;;;;;10.10;7.20;;;17.50;99.90;;;;;;2063716;28;20082;-81
2021/07/22 01:20:20;;;;;;;11.65;7.18;;;17.50;99.90;;;;;;2062622;28;20447;-81
2021/07/22 01:21:24;;;;;;;10.02;7.28;;;17.50;99.90;;;;;;2063409;28;20027;-81
2021/07/22 01:22:28;;;;;;;8.57;6.95;;;17.40;99.90;;;;;;2054338;28;20023;-79
2021/07/22 01:23:29;;;;;;;13.88;7.40;;;17.50;99.90;;;;;;2064136;28;20061;-82
2021/07/22 01:25:06;;;;;;;11.02;7.32;;;17.50;99.90;;;;;;2064530;28;20506;-80
2021/07/22 01:26:06;;;;;;;9.63;7.20;;;17.50;99.90;;;;;;2064191;28;20062;-79
2021/07/22 01:27:11;;;;;;;11.38;8.10;;;17.50;99.90;;;;;;2064291;28;20054;-80
2021/07/22 01:28:19;;;;;;;10.60;7.70;;;17.50;99.90;;;;;;2054230;28;20126;-79
2021/07/22 01:29:19;;;;;;;10.25;7.65;;;17.50;99.90;;;;;;2061704;28;20026;-82
2021/07/22 01:30:21;;;;;;;11.60;7.53;;;17.50;99.90;;;;;;2063018;28;20037;-81
2021/07/22 01:31:29;;;;;;;10.82;7.30;;;17.50;99.90;;;;;;2062368;28;20097;-79
2021/07/22 01:32:30;;;;;;;8.82;6.93;;;17.50;99.90;;;;;;2062471;28;20102;-81
2021/07/22 01:33:34;;;;;;;9.70;7.20;;;17.50;99.90;;;;;;2061575;28;20439;-80
2021/07/22 01:34:35;;;;;;;10.45;7.28;;;17.40;99.90;;;;;;2060286;28;20522;-81
2021/07/22 01:35:37;;;;;;;10.90;7.10;;;17.50;99.90;;;;;;2052593;28;20122;-79
2021/07/22 01:36:39;;;;;;;9.70;7.65;;;17.40;99.90;;;;;;2059894;28;20027;-79
2021/07/22 01:37:43;;;;;;;10.85;7.63;;;17.40;99.90;;;;;;2060505;28;20027;-80
2021/07/22 01:38:45;;;;;;;10.80;8.00;;;17.40;99.90;;;;;;2052545;29;20034;-82
2021/07/22 01:39:54;;;;;;;9.85;6.97;;;17.40;99.90;;;;;;2043018;29;20024;-79
2021/07/22 01:41:04;;;;;;;10.10;7.15;;;17.40;99.90;;;;;;2059396;28;20027;-80
2021/07/22 01:42:08;;;;;;;12.50;7.68;;;17.50;99.90;;;;;;2060668;28;20113;-80
2021/07/22 01:43:09;;;;;;;10.75;7.85;;;17.40;99.90;;;;;;2052922;28;20027;-79
2021/07/22 01:44:20;;;;;;;9.50;7.18;;;17.40;99.90;;;;;;2046878;28;20035;-81
2021/07/22 01:45:24;;;;;;;10.68;7.38;;;17.40;99.90;;;;;;2051980;29;20059;-79
2021/07/22 01:46:25;;;;;;;9.95;7.57;;;17.40;99.90;;;;;;2053680;28;20035;-79
2021/07/22 01:47:34;;;;;;;11.48;7.35;;;17.30;99.90;;;;;;2061303;28;20030;-79
2021/07/22 01:48:38;;;;;;;10.52;7.47;;;17.30;99.90;;;;;;2060987;28;20083;-79
2021/07/22 01:49:42;;;;;;;10.88;7.70;;;17.40;99.90;;;;;;2059691;28;20062;-79
2021/07/22 01:50:42;;;;;;;9.70;7.55;;;17.30;99.90;;;;;;2060053;28;20026;-79
2021/07/22 01:51:46;;;;;;;12.63;7.13;;;17.30;99.90;;;;;;2060376;28;20031;-80
2021/07/22 01:52:53;;;;;;;10.07;8.05;;;17.30;99.90;;;;;;2059748;28;20093;-79
2021/07/22 01:53:54;;;;;;;9.48;7.22;;;17.30;99.90;;;;;;2058955;28;20175;-80
2021/07/22 01:54:55;;;;;;;11.98;7.47;;;17.30;99.90;;;;;;2059889;28;20019;-80
2021/07/22 01:55:56;;;;;;;10.80;7.50;;;17.30;99.90;;;;;;2059336;28;20023;-80
2021/07/22 01:57:02;;;;;;;12.02;7.88;;;17.30;99.90;;;;;;2059547;28;20137;-80
2021/07/22 01:58:05;;;;;;;12.07;7.47;;;17.20;99.90;;;;;;2059397;28;20018;-79
2021/07/22 01:59:12;;;;;;;10.60;7.38;;;17.20;99.90;;;;;;2054242;28;20028;-81
2021/07/22 02:00:14;;;;;;;9.55;7.53;;;17.20;99.90;;;;;;2061535;28;20031;-80
2021/07/22 02:01:27;;;;;;;10.45;7.32;;;17.20;99.90;;;;;;2061523;28;20050;-80
2021/07/22 02:02:39;;;;;;;9.27;6.88;;;17.10;99.90;;;;;;2061301;28;20549;-80
2021/07/22 02:03:42;;;;;;;9.32;6.85;;;17.20;99.90;;;;;;2061227;28;20399;-80
2021/07/22 02:04:43;;;;;;;9.80;7.20;;;17.10;99.90;;;;;;2062194;28;20074;-80
2021/07/22 02:05:44;;;;;;;9.52;7.00;;;17.20;99.90;;;;;;2053553;28;20083;-80
2021/07/22 02:06:46;;;;;;;10.07;7.32;;;17.10;99.90;;;;;;2054288;28;20023;-80
2021/07/22 02:07:50;;;;;;;9.10;6.80;;;17.10;99.90;;;;;;2061705;28;20055;-81
2021/07/22 02:08:52;;;;;;;10.18;6.78;;;17.10;99.90;;;;;;2052965;28;20035;-80
2021/07/22 02:09:54;;;;;;;9.68;7.13;;;17.10;99.90;;;;;;2062066;28;20037;-80
2021/07/22 02:10:54;;;;;;;12.95;7.10;;;17.10;99.90;;;;;;2062563;28;20047;-81
2021/07/22 02:11:59;;;;;;;9.32;6.85;;;17.10;99.90;;;;;;2061922;28;20031;-79
2021/07/22 02:13:00;;;;;;;9.63;7.10;;;17.10;99.90;;;;;;2061947;28;20035;-80
2021/07/22 02:14:12;;;;;;;11.85;7.68;;;17.20;99.90;;;;;;2062558;28;20041;-79
2021/07/22 02:15:13;;;;;;;9.82;7.50;;;17.10;99.90;;;;;;2062080;28;20058;-80
2021/07/22 02:16:15;;;;;;;10.40;6.95;;;17.10;99.90;;;;;;2054153;28;20023;-81
2021/07/22 02:17:19;;;;;;;8.82;7.45;;;17.20;99.90;;;;;;2054273;29;20027;-81
2021/07/22 02:18:21;;;;;;;9.80;7.70;;;17.10;99.90;;;;;;2054556;28;20031;-81
2021/07/22 02:19:22;;;;;;;9.60;7.20;;;17.10;99.90;;;;;;2060885;28;20058;-80
2021/07/22 02:20:28;;;;;;;9.68;7.20;;;17.10;99.90;;;;;;2055115;28;20050;-83
2021/07/22 02:21:32;;;;;;;8.75;7.00;;;17.10;99.90;;;;;;2046547;29;20087;-80
2021/07/22 02:22:41;;;;;;;10.95;7.43;;;17.10;99.90;;;;;;2053212;28;20063;-79
2021/07/22 02:24:02;;;;;;;10.20;7.18;;;17.10;99.90;;;;;;2060167;28;20106;-79
2021/07/22 02:25:20;;;;;;;10.15;7.50;;;17.10;99.90;;;;;;2062333;28;20033;-82
2021/07/22 02:26:34;;;;;;;11.80;7.55;;;17.10;99.90;;;;;;2053904;28;20035;-80
2021/07/22 02:27:35;;;;;;;10.65;7.35;;;17.10;99.90;;;;;;2063077;28;20023;-83
2021/07/22 02:28:36;;;;;;;11.20;7.35;;;17.10;99.90;;;;;;2061208;28;20070;-82
2021/07/22 02:29:39;;;;;;;9.60;7.15;;;17.10;99.90;;;;;;2060876;28;20025;-82
2021/07/22 02:30:39;;;;;;;10.32;7.57;;;17.10;99.90;;;;;;2061449;28;20037;-82
2021/07/22 02:31:41;;;;;;;9.82;7.25;;;17.10;99.90;;;;;;2060933;28;20023;-82
2021/07/22 02:32:46;;;;;;;10.65;7.47;;;17.10;99.90;;;;;;2054223;28;20030;-79
2021/07/22 02:33:48;;;;;;;11.35;7.75;;;17.00;99.90;;;;;;2062389;28;20035;-82
2021/07/22 02:34:49;;;;;;;10.55;7.22;;;17.00;99.90;;;;;;2061419;28;20058;-81
2021/07/22 02:36:16;;;;;;;10.05;7.55;;;17.00;99.90;;;;;;2054743;28;20046;-81
2021/07/22 02:37:31;;;;;;;10.13;7.45;;;17.00;99.90;;;;;;2062176;28;20033;-80
2021/07/22 02:38:45;;;;;;;11.63;7.20;;;17.00;99.90;;;;;;2059808;28;20023;-80
2021/07/22 02:39:50;;;;;;;9.40;7.40;;;17.00;99.90;;;;;;2061551;28;20015;-79
2021/07/22 02:40:54;;;;;;;9.05;7.13;;;17.00;99.90;;;;;;2053954;29;20037;-82
2021/07/22 02:41:58;;;;;;;9.70;7.75;;;16.90;99.90;;;;;;2047663;28;20043;-79
2021/07/22 02:43:02;;;;;;;9.32;7.15;;;17.00;99.90;;;;;;2052353;28;20038;-82
2021/07/22 02:44:04;;;;;;;8.57;6.80;;;16.90;99.90;;;;;;2053517;28;20027;-81
2021/07/22 02:45:09;;;;;;;10.93;7.50;;;17.00;99.90;;;;;;2055742;28;20031;-82
2021/07/22 02:46:11;;;;;;;9.50;7.03;;;17.00;99.90;;;;;;2054699;28;20031;-81
2021/07/22 02:47:20;;;;;;;9.40;6.70;;;17.00;99.90;;;;;;2062976;28;20023;-82
2021/07/22 02:48:20;;;;;;;9.60;7.20;;;17.00;99.90;;;;;;2059538;28;20047;-82
2021/07/22 02:49:21;;;;;;;10.85;6.93;;;17.00;99.90;;;;;;2061176;28;20023;-81
2021/07/22 02:50:23;;;;;;;10.10;7.70;;;17.00;99.90;;;;;;2060416;28;20019;-81
2021/07/22 02:51:28;;;;;;;10.77;7.50;;;17.00;99.90;;;;;;2061334;28;20031;-81
2021/07/22 02:52:29;;;;;;;10.45;7.50;;;16.90;99.90;;;;;;2061091;28;20030;-81
2021/07/22 02:53:34;;;;;;;10.02;7.20;;;16.90;99.90;;;;;;2052951;28;20027;-79
2021/07/22 02:54:58;;;;;;;11.80;7.60;;;16.90;99.90;;;;;;2053058;28;20039;-82
2021/07/22 02:55:59;;;;;;;9.80;7.50;;;16.90;99.90;;;;;;2052734;28;20067;-80
2021/07/22 02:57:01;;;;;;;11.15;7.25;;;16.90;99.90;;;;;;2053935;28;20019;-81
2021/07/22 02:58:05;;;;;;;9.45;7.05;;;16.90;99.90;;;;;;2060874;28;20050;-81
2021/07/22 02:59:09;;;;;;;10.13;7.47;;;16.90;99.90;;;;;;2053633;28;20027;-81
2021/07/22 03:00:13;;;;;;;10.73;7.47;;;16.80;99.90;;;;;;2061414;28;20022;-82
2021/07/22 03:01:17;;;;;;;9.40;7.50;;;16.90;99.90;;;;;;2061285;28;20113;-81
2021/07/22 03:02:18;;;;;;;10.60;7.55;;;16.80;99.90;;;;;;2059409;28;20023;-80
2021/07/22 03:03:20;;;;;;;10.80;7.22;;;16.80;99.90;;;;;;2059733;28;20026;-80
2021/07/22 03:04:21;;;;;;;9.63;7.18;;;16.80;99.90;;;;;;2060255;28;20651;-80
2021/07/22 03:05:33;;;;;;;8.50;7.03;;;16.80;99.90;;;;;;2061052;28;20399;-80
2021/07/22 03:06:34;;;;;;;10.32;7.45;;;16.80;99.90;;;;;;2053009;28;20023;-81
2021/07/22 03:07:38;;;;;;;11.35;7.00;;;16.80;99.90;;;;;;2044950;28;20023;-80
2021/07/22 03:08:39;;;;;;;10.48;7.55;;;16.80;99.90;;;;;;2044300;28;20028;-80
2021/07/22 03:09:41;;;;;;;10.18;7.43;;;16.80;99.90;;;;;;2051764;28;20031;-80
2021/07/22 03:10:42;;;;;;;9.18;7.38;;;16.80;99.90;;;;;;2051789;29;20210;-79
2021/07/22 03:11:43;;;;;;;8.98;6.93;;;16.80;99.90;;;;;;2058092;28;20565;-80
2021/07/22 03:12:44;;;;;;;11.23;7.57;;;16.80;99.90;;;;;;2058695;28;20070;-79
2021/07/22 03:13:46;;;;;;;10.43;7.43;;;16.80;99.90;;;;;;2059036;28;20027;-80
2021/07/22 03:14:47;;;;;;;9.25;7.28;;;16.80;99.90;;;;;;2059901;28;20023;-79
2021/07/22 03:15:48;;;;;;;9.20;7.30;;;16.80;99.90;;;;;;2059635;28;20454;-80
2021/07/22 03:17:09;;;;;;;10.52;8.05;;;16.80;99.90;;;;;;2058706;28;20034;-80
2021/07/22 03:18:13;;;;;;;9.52;6.90;;;16.80;99.90;;;;;;2058673;28;20030;-79
2021/07/22 03:19:15;;;;;;;9.20;6.88;;;16.80;99.90;;;;;;2059912;28;20077;-84
2021/07/22 03:20:38;;;;;;;8.82;6.97;;;16.80;99.90;;;;;;2059469;28;20110;-80
2021/07/22 03:21:49;;;;;;;9.18;6.68;;;16.80;99.90;;;;;;2059567;28;20043;-79
2021/07/22 03:23:08;;;;;;;10.45;6.88;;;16.70;99.90;;;;;;2059701;28;20054;-79
2021/07/22 03:24:25;;;;;;;11.88;7.32;;;16.70;99.90;;;;;;2059088;28;20086;-80
2021/07/22 03:25:27;;;;;;;10.75;7.38;;;16.70;99.90;;;;;;2044013;29;20087;-79
2021/07/22 03:26:43;;;;;;;9.68;7.43;;;16.70;99.90;;;;;;2053948;28;20023;-87
2021/07/22 03:27:44;;;;;;;12.40;7.22;;;16.60;99.90;;;;;;2061194;28;20046;-80
2021/07/22 03:29:05;;;;;;;;;;;16.60;99.90;;;;;;2059182;28;20034;-80
2021/07/22 03:30:09;;;;;;;11.93;7.40;;;16.60;99.90;;;;;;2059142;28;19910;-82
2021/07/22 03:31:18;;;;;;;11.60;7.50;;;16.60;99.90;;;;;;2059113;28;20035;-79
2021/07/22 03:32:27;;;;;;;9.50;7.40;;;16.60;99.90;;;;;;2051316;28;20612;-79
2021/07/22 03:33:28;;;;;;;8.48;7.03;;;16.60;99.90;;;;;;2051348;28;20031;-79
2021/07/22 03:34:39;;;;;;;12.07;7.53;;;16.60;99.90;;;;;;2051614;28;20114;-82
2021/07/22 03:35:46;;;;;;;9.93;7.32;;;16.60;99.90;;;;;;2059101;28;20034;-79
2021/07/22 03:36:51;;;;;;;10.90;7.10;;;16.60;99.90;;;;;;2058791;28;20027;-79
2021/07/22 03:37:53;;;;;;;9.63;7.30;;;16.60;99.90;;;;;;2051038;28;20019;-81
2021/07/22 03:38:57;;;;;;;10.85;7.57;;;16.50;99.90;;;;;;2058299;28;20073;-80
2021/07/22 03:40:10;;;;;;;9.10;7.07;;;16.60;99.90;;;;;;2059873;28;20053;-81
2021/07/22 03:41:15;;;;;;;12.98;7.75;;;16.60;99.90;;;;;;2061697;28;20422;-82
2021/07/22 03:42:17;;;;;;;11.20;7.68;;;16.60;99.90;;;;;;2061845;28;20109;-82
2021/07/22 03:43:37;;;;;;;9.55;7.28;;;16.60;99.90;;;;;;2064155;28;20035;-81
2021/07/22 03:44:38;;;;;;;11.18;7.38;;;16.60;99.90;;;;;;2065222;28;20051;-80
2021/07/22 03:45:46;;;;;;;9.65;7.32;;;16.60;99.90;;;;;;2056414;28;20031;-81
2021/07/22 03:46:48;;;;;;;9.60;7.00;;;16.60;99.90;;;;;;2061013;28;20051;-81
2021/07/22 03:47:50;;;;;;;11.10;7.07;;;16.60;99.90;;;;;;2053884;28;20035;-81
2021/07/22 03:48:52;;;;;;;10.07;7.05;;;16.60;99.90;;;;;;2061753;28;20030;-81
2021/07/22 03:49:56;;;;;;;9.60;7.22;;;16.60;99.90;;;;;;2061504;28;20031;-80
2021/07/22 03:51:07;;;;;;;9.45;7.13;;;16.60;99.90;;;;;;2061546;28;20086;-84
2021/07/22 03:52:08;;;;;;;9.55;6.93;;;16.60;99.90;;;;;;2061667;28;20034;-80
2021/07/22 03:53:15;;;;;;;9.30;6.80;;;16.60;99.90;;;;;;2054297;28;20082;-81
2021/07/22 03:54:16;;;;;;;9.52;7.18;;;16.60;99.90;;;;;;2061292;28;20095;-84
2021/07/22 03:55:17;;;;;;;10.40;7.07;;;16.70;99.90;;;;;;2061486;28;20402;-82
2021/07/22 03:56:41;;;;;;;9.65;6.88;;;16.60;99.90;;;;;;2037271;29;20528;-81
2021/07/22 03:57:53;;;;;;;9.35;7.07;;;16.60;99.90;;;;;;2058408;28;20697;-80
2021/07/22 03:58:55;;;;;;;11.45;7.47;;;16.60;99.90;;;;;;2053909;28;20039;-81
2021/07/22 04:00:07;;;;;;;9.45;7.13;;;16.60;99.90;;;;;;2062219;28;20027;-81
2021/07/22 04:01:24;;;;;;;12.65;7.20;;;16.60;99.90;;;;;;2062448;28;20027;-80
2021/07/22 04:02:26;;;;;;;11.82;7.53;;;16.60;99.90;;;;;;2062236;28;20051;-81
2021/07/22 04:03:27;;;;;;;8.93;6.72;;;16.60;99.90;;;;;;2061536;28;20045;-82
2021/07/22 04:04:28;;;;;;;9.57;6.82;;;16.60;99.90;;;;;;2062125;28;20027;-82
2021/07/22 04:05:29;;;;;;;11.15;7.07;;;16.60;99.90;;;;;;2061544;28;20517;-80
2021/07/22 04:06:33;;;;;;;9.48;7.22;;;16.60;99.90;;;;;;2062024;28;20023;-81
2021/07/22 04:07:36;;;;;;;11.10;7.28;;;16.60;99.90;;;;;;2058921;28;20027;-82
2021/07/22 04:08:52;;;;;;;11.00;7.40;;;16.60;99.90;;;;;;2058702;28;20023;-81
2021/07/22 04:10:16;;;;;;;8.57;6.75;;;16.60;99.90;;;;;;2045914;29;20031;-82
2021/07/22 04:11:29;;;;;;;9.68;7.50;;;16.70;99.90;;;;;;2051629;28;20028;-84
2021/07/22 04:13:01;;;;;;;9.90;7.40;;;16.60;99.90;;;;;;2055052;28;20635;-80
2021/07/22 04:14:30;;;;;;;11.75;7.07;;;16.70;99.90;;;;;;2048685;28;20118;-82
2021/07/22 04:15:44;;;;;;;9.43;7.20;;;16.70;99.90;;;;;;2060463;28;20435;-80
2021/07/22 04:17:18;;;;;;;10.30;7.03;;;16.70;99.90;;;;;;2055823;28;20125;-82
2021/07/22 04:18:54;;;;;;;9.70;6.90;;;16.70;99.90;;;;;;2025925;29;20137;-79
2021/07/22 04:20:03;;;;;;;8.13;6.50;;;16.80;99.90;;;;;;2026476;29;20028;-82
2021/07/22 04:21:31;;;;;;;9.20;6.80;;;16.80;99.80;;;;;;2050289;28;20038;-81
2021/07/22 04:22:51;;;;;;;10.07;7.03;;;16.80;99.90;;;;;;2060948;28;20027;-81
2021/07/22 04:24:02;;;;;;;9.63;6.78;;;16.80;99.80;;;;;;2054315;28;20027;-80
2021/07/22 04:25:12;;;;;;;9.02;6.90;;;16.90;99.70;;;;;;2054078;28;20027;-81
2021/07/22 04:26:27;;;;;;;12.13;6.75;;;16.90;99.70;;;;;;2060819;28;20030;-82
2021/07/22 04:27:43;;;;;;;9.55;7.15;;;16.90;99.80;;;;;;2060858;28;20023;-82
2021/07/22 04:28:51;;;;;;;8.82;6.82;;;16.90;99.90;;;;;;2052824;28;20034;-80
2021/07/22 04:29:51;;;;;;;8.18;6.43;;;17.00;99.70;;;;;;2061817;28;20019;-80
2021/07/22 04:30:53;;;;;;;10.93;7.28;;;17.00;99.30;;;;;;2063134;28;20015;-80
2021/07/22 04:32:12;;;;;;;12.00;7.50;;;17.00;99.10;;;;;;2062039;28;20027;-80
2021/07/22 04:33:22;;;;;;;11.57;7.47;;;17.00;99.00;;;;;;2062797;28;20031;-80
2021/07/22 04:34:29;;;;;;;10.35;7.30;;;17.00;99.10;;;;;;2062091;28;20023;-80
2021/07/22 04:35:56;;;;;;;9.75;6.93;;;17.10;99.00;;;;;;2054437;29;20075;-80
2021/07/22 04:37:20;;;;;;;10.80;7.32;;;17.10;98.90;;;;;;2057165;28;20047;-80
2021/07/22 04:38:38;;;;;;;9.55;6.95;;;17.10;99.00;;;;;;2062748;28;20042;-80
2021/07/22 04:39:47;;;;;;;10.13;7.18;;;17.10;98.80;;;;;;2062555;28;20042;-80
2021/07/22 04:41:10;;;;;;;9.85;7.40;;;17.10;98.70;;;;;;2061436;28;20030;-79
2021/07/22 04:42:29;;;;;;;9.82;6.72;;;17.20;98.10;;;;;;2062456;28;20042;-80
2021/07/22 04:43:54;;;;;;;11.80;7.28;;;17.10;97.90;;;;;;2062935;28;20030;-79
2021/07/22 04:45:15;;;;;;;12.07;6.90;;;17.20;98.00;;;;;;2062487;28;20057;-80
2021/07/22 04:46:39;;;;;;;8.75;6.93;;;17.20;97.70;;;;;;2059061;28;20046;-79
2021/07/22 04:48:02;;;;;;;9.60;6.88;;;17.20;97.30;;;;;;2063082;28;20030;-81
2021/07/22 04:49:32;;;;;;;8.85;6.90;;;17.30;97.20;;;;;;2052109;29;20039;-81
2021/07/22 04:50:42;;;;;;;9.57;6.88;;;17.20;96.70;;;;;;2051590;28;20074;-79
2021/07/22 04:51:51;;;;;;;10.90;7.15;;;17.20;96.80;;;;;;2060293;28;20033;-79
2021/07/22 04:53:01;;;;;;;8.73;6.63;;;17.30;97.00;;;;;;2053547;28;20031;-80
2021/07/22 04:54:12;;;;;;;13.02;7.10;;;17.30;96.90;;;;;;2059823;28;20588;-79
2021/07/22 04:55:13;;;;;;;8.98;6.80;;;17.30;96.50;;;;;;2052550;28;20035;-80
2021/07/22 04:56:13;;;;;;;9.63;7.18;;;17.30;96.50;;;;;;2060525;28;20110;-80
2021/07/22 04:57:14;;;;;;;10.32;6.95;;;17.30;96.20;;;;;;2053024;29;20034;-80
2021/07/22 04:58:19;;;;;;;11.27;7.18;;;17.30;96.00;;;;;;2046796;28;20036;-80
2021/07/22 04:59:23;;;;;;;11.60;6.82;;;17.30;96.10;;;;;;2061823;28;20029;-80
2021/07/22 05:00:24;;;;;;;10.77;7.22;;;17.30;96.10;;;;;;2069817;28;20125;-80
2021/07/22 05:01:30;;;;;;;9.45;7.05;;;17.30;96.00;;;;;;2062848;28;20045;-80
2021/07/22 05:02:31;;;;;;;10.73;7.00;;;17.30;95.80;;;;;;2063531;28;20175;-80
2021/07/22 05:03:32;;;;;;;10.82;7.70;;;17.30;95.50;;;;;;2062832;28;20131;-80
2021/07/22 05:04:33;;;;;;;10.73;6.68;;;17.40;95.20;;;;;;2061977;28;20090;-79
2021/07/22 05:05:36;;;;;;;10.25;7.00;;;17.40;95.30;;;;;;2054507;28;20696;-80
2021/07/22 05:07:05;;;;;;;9.20;7.10;;;17.40;95.50;;;;;;2042126;29;20032;-80
2021/07/22 05:08:27;;;;;;;9.82;7.10;;;17.40;95.40;;;;;;2049205;28;20032;-80
2021/07/22 05:09:40;;;;;;;9.00;6.68;;;17.40;95.20;;;;;;2062430;28;20087;-80
2021/07/22 05:10:57;;;;;;;9.30;6.65;;;17.50;95.10;;;;;;2061670;28;20045;-79
2021/07/22 05:12:02;;;;;;;10.25;6.88;;;17.50;95.10;;;;;;2061243;28;20035;-80
2021/07/22 05:13:18;;;;;;;12.05;7.47;;;17.50;95.00;;;;;;2062098;28;20034;-80
2021/07/22 05:14:36;;;;;;;11.88;7.38;;;17.50;94.60;;;;;;2061567;28;20022;-79
2021/07/22 05:15:55;;;;;;;10.70;6.85;;;17.60;94.70;;;;;;2062357;28;20043;-80
2021/07/22 05:17:14;;;;;;;9.48;6.88;;;17.50;94.50;;;;;;2061693;28;20027;-79
2021/07/22 05:18:41;;;;;;;8.68;6.55;;;17.60;94.40;;;;;;2061162;28;20043;-80
2021/07/22 05:20:00;;;;;;;12.57;7.20;;;17.60;94.30;;;;;;2065411;28;20035;-81
2021/07/22 05:21:14;;;;;;;9.13;6.90;;;17.60;93.90;;;;;;2058801;28;20218;-79
2021/07/22 05:22:40;;;;;;;12.68;7.40;;;17.60;93.90;;;;;;2065695;28;20035;-83
2021/07/22 05:23:50;;;;;;;10.38;6.80;;;17.60;93.80;;;;;;2066862;28;20030;-82
2021/07/22 05:25:06;;;;;;;10.38;7.10;;;17.70;93.80;;;;;;2059749;28;20066;-83
2021/07/22 05:26:24;;;;;;;11.35;7.10;;;17.70;93.80;;;;;;2061205;28;20054;-80
2021/07/22 05:28:00;;;;;;;9.38;6.57;;;17.70;93.70;;;;;;2052932;28;20023;-80
2021/07/22 05:29:05;;;;;;;9.38;6.80;;;17.80;93.60;;;;;;2051986;29;20058;-80
2021/07/22 05:30:38;;;;;;;9.43;6.65;;;17.80;93.60;;;;;;2054111;28;20130;-80
2021/07/22 05:31:57;;;;;;;9.13;6.72;;;17.90;93.60;;;;;;2062052;28;20117;-80
2021/07/22 05:33:11;;;;;;;9.00;6.68;;;17.90;93.50;;;;;;2060074;28;20533;-79
2021/07/22 05:34:33;;;;;;;10.23;6.78;;;17.90;93.40;;;;;;2062289;28;20015;-79
2021/07/22 05:35:44;;;;;;;;;;;18.00;93.40;;;;;;2064495;28;20030;-80
2021/07/22 05:37:05;;;;;;;9.90;6.93;;;18.00;93.00;;;;;;2065262;28;20297;-80
2021/07/22 05:38:24;;;;;;;;;;;18.00;93.20;;;;;;2063096;28;20047;-82
2021/07/22 05:39:34;;;;;;;9.85;6.60;;;18.10;92.90;;;;;;2062029;28;19941;-81
2021/07/22 05:40:34;;;;;;;9.70;7.05;;;18.20;92.80;;;;;;2055772;28;20038;-80
2021/07/22 05:41:35;;;;;;;10.68;6.93;;;18.20;92.90;;;;;;2065626;28;20434;-80
2021/07/22 05:42:36;;;;;;;11.50;6.88;;;18.20;92.80;;;;;;2062895;28;20343;-81
2021/07/22 05:43:37;;;;;;;11.95;7.47;;;18.20;92.60;;;;;;2061483;28;20033;-80
2021/07/22 05:44:37;;;;;;;11.07;6.90;;;18.30;92.30;;;;;;2061407;28;20039;-80
2021/07/22 05:45:41;;;;;;;11.05;7.10;;;18.30;92.10;;;;;;2062355;28;20101;-80
2021/07/22 05:46:41;;;;;;;11.35;6.78;;;18.30;92.00;;;;;;2061282;28;20027;-81